Time;durP1;ratioP1;P1;durP2;ratioP2;P2;SDS_P1;SDS_P2;PMS_P1;PMS_P2;Temp;Humidity;BMP_temperature;BMP_pressure;BME280_temperature;BME280_humidity;BME280_pressure;Samples;Min_cycle;Max_cycle;Signal;HPM_P1;HPM_P2
2023/01/18 00:01:26;;;;;;;8.90;4.38;;;;;;;;;;5073838;28;20052;-72
2023/01/18 00:03:52;;;;;;;9.93;4.72;;;;;;;;;;5074342;28;20040;-72
2023/01/18 00:06:18;;;;;;;9.73;4.30;;;;;;;;;;5073572;28;20045;-72
2023/01/18 00:08:45;;;;;;;9.98;4.18;;;;;;;;;;5074493;28;20158;-73
2023/01/18 00:11:14;;;;;;;8.10;4.55;;;;;;;;;;5073772;28;20059;-72
2023/01/18 00:13:40;;;;;;;8.25;4.30;;;;;;;;;;5074044;28;20041;-72
2023/01/18 00:16:17;;;;;;;11.73;4.55;;;;;;;;;;5075192;28;20119;-73
2023/01/18 00:18:43;;;;;;;7.82;4.50;;;;;;;;;;5074430;28;20563;-73
2023/01/18 00:21:11;;;;;;;7.63;4.07;;;;;;;;;;5073788;28;20123;-72
2023/01/18 00:23:37;;;;;;;9.82;4.50;;;;;;;;;;5073434;28;20067;-72
2023/01/18 00:26:05;;;;;;;12.63;4.47;;;;;;;;;;5073816;28;20464;-72
2023/01/18 00:28:31;;;;;;;10.63;4.70;;;;;;;;;;5073525;28;20040;-72
2023/01/18 00:30:57;;;;;;;8.88;4.38;;;;;;;;;;5073864;28;20086;-72
2023/01/18 00:33:23;;;;;;;11.60;4.55;;;;;;;;;;5072698;28;20036;-72
2023/01/18 00:36:00;;;;;;;9.32;4.78;;;;;;;;;;5073667;28;20569;-73
2023/01/18 00:38:26;;;;;;;7.53;4.38;;;;;;;;;;5056301;28;20051;-73
2023/01/18 00:40:52;;;;;;;9.45;5.55;;;;;;;;;;5074583;28;20070;-73
2023/01/18 00:46:04;;;;;;;8.98;4.55;;;;;;;;;;5073286;28;20041;-72
2023/01/18 00:48:30;;;;;;;8.50;4.90;;;;;;;;;;5072968;28;20075;-72
2023/01/18 00:50:56;;;;;;;8.27;4.80;;;;;;;;;;5073641;28;20036;-72
2023/01/18 00:53:22;;;;;;;10.63;5.07;;;;;;;;;;5073098;28;20508;-73
2023/01/18 00:55:48;;;;;;;10.93;5.40;;;;;;;;;;5073041;28;20041;-72
2023/01/18 00:58:14;;;;;;;8.63;5.00;;;;;;;;;;5073287;28;20040;-72
2023/01/18 01:00:41;;;;;;;9.43;4.97;;;;;;;;;;5056113;28;20419;-73
2023/01/18 01:03:07;;;;;;;8.38;4.70;;;;;;;;;;5073123;28;20036;-72
2023/01/18 01:08:20;;;;;;;11.57;5.40;;;;;;;;;;5073150;28;20040;-73
2023/01/18 01:10:50;;;;;;;9.98;5.10;;;;;;;;;;5072744;28;20056;-73
2023/01/18 01:27:06;;;;;;;9.40;4.93;;;;;;;;;;5046955;28;20477;-72
2023/01/18 01:29:32;;;;;;;9.10;4.75;;;;;;;;;;5055610;28;20044;-73
2023/01/18 01:31:58;;;;;;;7.38;4.78;;;;;;;;;;5073108;28;20044;-72
2023/01/18 01:34:25;;;;;;;9.93;5.25;;;;;;;;;;5072232;28;20497;-72
2023/01/18 01:36:51;;;;;;;13.35;5.25;;;;;;;;;;5073866;28;20132;-72
2023/01/18 01:39:17;;;;;;;8.93;5.18;;;;;;;;;;5073749;28;20033;-72
2023/01/18 01:41:44;;;;;;;8.35;4.68;;;;;;;;;;5072161;28;20044;-72
2023/01/18 01:44:19;;;;;;;9.00;5.13;;;;;;;;;;5073485;28;20041;-72
2023/01/18 01:47:05;;;;;;;7.57;4.70;;;;;;;;;;5055083;28;20079;-72
2023/01/18 01:49:49;;;;;;;13.05;5.28;;;;;;;;;;5045797;28;20044;-72
2023/01/18 01:52:33;;;;;;;9.45;4.80;;;;;;;;;;5072152;28;20398;-72
2023/01/18 01:55:02;;;;;;;8.00;4.70;;;;;;;;;;5071949;28;20072;-72
2023/01/18 01:57:31;;;;;;;7.82;4.82;;;;;;;;;;5071730;28;20091;-73
2023/01/18 02:00:00;;;;;;;8.75;5.18;;;;;;;;;;5071557;28;20044;-72
2023/01/18 02:02:27;;;;;;;10.57;5.70;;;;;;;;;;5057507;28;20123;-72
2023/01/18 02:04:54;;;;;;;13.48;5.82;;;;;;;;;;5053313;28;20040;-73
2023/01/18 02:07:21;;;;;;;10.63;6.07;;;;;;;;;;5053378;28;20036;-73
2023/01/18 02:09:47;;;;;;;11.68;6.15;;;;;;;;;;5051279;28;20064;-73
2023/01/18 02:12:13;;;;;;;10.82;5.75;;;;;;;;;;5051667;28;20060;-73
2023/01/18 02:14:40;;;;;;;10.45;5.90;;;;;;;;;;5051211;28;20045;-73
2023/01/18 02:17:30;;;;;;;9.85;5.50;;;;;;;;;;5035400;28;20041;-72
2023/01/18 02:20:18;;;;;;;11.68;6.28;;;;;;;;;;5051873;28;20508;-72
2023/01/18 02:22:44;;;;;;;12.13;6.65;;;;;;;;;;5051101;28;20080;-73
2023/01/18 02:25:23;;;;;;;18.17;7.05;;;;;;;;;;5034812;28;20037;-72
2023/01/18 02:28:07;;;;;;;11.35;7.00;;;;;;;;;;5051186;28;20052;-73
2023/01/18 02:30:35;;;;;;;12.00;7.22;;;;;;;;;;5040004;28;20045;-73
2023/01/18 02:33:05;;;;;;;12.63;7.50;;;;;;;;;;5051618;28;20555;-73
2023/01/18 02:35:50;;;;;;;12.80;7.68;;;;;;;;;;5051349;28;20073;-72
2023/01/18 02:38:20;;;;;;;16.23;8.15;;;;;;;;;;5051433;28;20513;-73
2023/01/18 02:41:05;;;;;;;13.48;7.88;;;;;;;;;;5050828;28;20444;-72
2023/01/18 02:46:32;;;;;;;14.52;7.85;;;;;;;;;;5051197;28;20044;-73
2023/01/18 02:49:00;;;;;;;13.35;8.15;;;;;;;;;;5050850;28;20037;-73
2023/01/18 02:51:26;;;;;;;14.80;8.73;;;;;;;;;;5051241;28;20037;-73
2023/01/18 02:53:53;;;;;;;12.55;8.05;;;;;;;;;;5050993;28;20041;-73
2023/01/18 02:56:25;;;;;;;12.75;7.63;;;;;;;;;;5050870;28;20044;-72
2023/01/18 02:58:52;;;;;;;13.07;7.53;;;;;;;;;;5033927;28;20053;-72
2023/01/18 03:01:25;;;;;;;17.50;8.32;;;;;;;;;;5043230;28;20056;-72
2023/01/18 03:03:53;;;;;;;15.95;8.35;;;;;;;;;;5068600;28;20044;-72
2023/01/18 03:06:23;;;;;;;14.15;8.43;;;;;;;;;;5070540;28;20042;-72
2023/01/18 03:08:51;;;;;;;16.00;8.65;;;;;;;;;;5070787;28;20114;-72
2023/01/18 03:11:32;;;;;;;18.52;8.77;;;;;;;;;;5070201;28;20053;-72
2023/01/18 03:14:02;;;;;;;15.40;8.75;;;;;;;;;;5050320;28;20037;-72
2023/01/18 03:16:58;;;;;;;16.85;8.82;;;;;;;;;;5051027;28;20128;-72
2023/01/18 03:23:36;;;;;;;16.80;8.95;;;;;;;;;;5050771;28;20056;-73
2023/01/18 03:25:13;;;;;;;17.55;8.60;;;;;;;;;;5050537;28;20448;-73
2023/01/18 03:35:56;;;;;;;15.40;8.73;;;;;;;;;;5047523;28;20049;-73
2023/01/18 03:38:22;;;;;;;17.02;9.23;;;;;;;;;;5054622;28;20045;-73
2023/01/18 03:40:48;;;;;;;20.02;9.27;;;;;;;;;;5054385;28;20048;-73
2023/01/18 03:43:16;;;;;;;15.63;8.82;;;;;;;;;;5054472;28;20529;-73
2023/01/18 03:45:43;;;;;;;15.20;8.95;;;;;;;;;;5037710;28;20045;-73
2023/01/18 03:48:10;;;;;;;17.48;9.30;;;;;;;;;;5054268;28;20075;-73
2023/01/18 03:50:43;;;;;;;16.85;8.85;;;;;;;;;;5054497;28;20062;-73
2023/01/18 03:53:12;;;;;;;19.63;9.18;;;;;;;;;;5054429;28;20033;-73
2023/01/18 03:55:40;;;;;;;19.33;9.10;;;;;;;;;;5054784;28;20136;-72
2023/01/18 03:58:09;;;;;;;15.13;8.38;;;;;;;;;;5053717;28;20040;-72
2023/01/18 04:00:36;;;;;;;15.27;9.30;;;;;;;;;;5040531;28;20037;-72
2023/01/18 04:03:02;;;;;;;15.70;9.10;;;;;;;;;;5037578;28;20045;-73
2023/01/18 04:05:28;;;;;;;15.35;8.98;;;;;;;;;;5037808;28;20474;-72
2023/01/18 04:07:54;;;;;;;15.13;8.35;;;;;;;;;;5054037;28;20041;-73
2023/01/18 04:10:20;;;;;;;15.23;8.43;;;;;;;;;;5054252;28;20037;-73
2023/01/18 04:12:46;;;;;;;16.70;8.50;;;;;;;;;;5053341;28;20052;-73
2023/01/18 04:15:12;;;;;;;15.93;8.80;;;;;;;;;;5054382;28;20401;-73
2023/01/18 04:17:38;;;;;;;14.68;8.32;;;;;;;;;;5053862;28;20079;-73
2023/01/18 04:20:05;;;;;;;16.40;8.45;;;;;;;;;;5037009;28;20119;-72
2023/01/18 04:22:31;;;;;;;15.98;8.38;;;;;;;;;;5054066;28;20037;-72
2023/01/18 04:24:57;;;;;;;15.10;8.65;;;;;;;;;;5053801;28;20072;-73
2023/01/18 04:27:24;;;;;;;14.48;8.45;;;;;;;;;;5054821;28;20044;-73
2023/01/18 04:29:50;;;;;;;21.08;9.20;;;;;;;;;;5054883;28;20037;-73
2023/01/18 04:32:16;;;;;;;16.70;8.82;;;;;;;;;;5055170;28;20112;-73
2023/01/18 04:34:42;;;;;;;15.05;8.60;;;;;;;;;;5054749;28;20048;-73
2023/01/18 04:37:08;;;;;;;18.17;8.57;;;;;;;;;;5053175;28;20047;-73
2023/01/18 04:39:34;;;;;;;17.58;9.02;;;;;;;;;;5052526;28;20060;-73
2023/01/18 04:42:00;;;;;;;17.45;8.85;;;;;;;;;;5052632;28;20037;-73
2023/01/18 04:44:26;;;;;;;17.67;9.57;;;;;;;;;;5053292;28;20049;-73
2023/01/18 04:46:52;;;;;;;19.80;9.63;;;;;;;;;;5052922;28;20048;-73
2023/01/18 04:49:18;;;;;;;17.05;9.20;;;;;;;;;;5053409;28;20037;-72
2023/01/18 04:51:45;;;;;;;14.40;9.18;;;;;;;;;;5054801;28;20087;-73
2023/01/18 04:54:13;;;;;;;17.35;9.00;;;;;;;;;;5074031;28;20068;-73
2023/01/18 04:56:39;;;;;;;19.83;9.18;;;;;;;;;;5073457;28;20056;-73
2023/01/18 04:59:05;;;;;;;16.92;9.23;;;;;;;;;;5055990;28;20050;-73
2023/01/18 05:01:32;;;;;;;18.63;9.55;;;;;;;;;;5066107;28;20041;-73
2023/01/18 05:03:58;;;;;;;17.95;9.20;;;;;;;;;;5069016;28;20052;-73
2023/01/18 05:06:24;;;;;;;21.13;9.40;;;;;;;;;;5106409;28;20077;-73
2023/01/18 05:08:51;;;;;;;15.95;9.40;;;;;;;;;;5056198;28;20397;-73
2023/01/18 05:11:19;;;;;;;18.08;9.63;;;;;;;;;;5052694;28;20068;-72
2023/01/18 05:13:46;;;;;;;17.38;9.07;;;;;;;;;;5053071;28;20049;-72
2023/01/18 05:16:16;;;;;;;17.30;8.63;;;;;;;;;;5052246;28;20041;-72
2023/01/18 05:18:42;;;;;;;17.48;9.15;;;;;;;;;;5068822;28;20051;-73
2023/01/18 05:21:08;;;;;;;16.40;8.70;;;;;;;;;;5072622;28;20047;-73
2023/01/18 05:23:35;;;;;;;15.95;9.20;;;;;;;;;;5073021;28;20044;-73
2023/01/18 05:26:02;;;;;;;18.70;9.55;;;;;;;;;;5072213;28;20072;-73
2023/01/18 05:28:28;;;;;;;16.65;8.55;;;;;;;;;;5072535;28;20044;-72
2023/01/18 05:30:54;;;;;;;14.43;8.75;;;;;;;;;;5055664;28;20045;-72
2023/01/18 05:33:21;;;;;;;14.88;8.57;;;;;;;;;;5072272;28;20559;-72
2023/01/18 05:35:48;;;;;;;17.25;8.35;;;;;;;;;;5068615;28;20072;-73
2023/01/18 05:38:14;;;;;;;19.45;8.85;;;;;;;;;;5071969;28;20082;-72
2023/01/18 05:40:42;;;;;;;19.00;8.63;;;;;;;;;;5055545;28;20040;-72
2023/01/18 05:43:08;;;;;;;19.60;8.88;;;;;;;;;;5072283;28;20128;-72
2023/01/18 05:45:34;;;;;;;13.82;7.93;;;;;;;;;;5055960;28;20040;-73
2023/01/18 05:48:00;;;;;;;17.42;8.38;;;;;;;;;;5071805;28;20032;-73
2023/01/18 05:50:26;;;;;;;16.50;8.40;;;;;;;;;;5072087;28;20116;-73
2023/01/18 05:52:52;;;;;;;14.27;7.80;;;;;;;;;;5071710;28;20040;-73
2023/01/18 05:55:18;;;;;;;16.60;8.88;;;;;;;;;;5055388;28;20071;-73
2023/01/18 05:57:45;;;;;;;13.80;7.75;;;;;;;;;;5072177;28;20048;-72
2023/01/18 06:00:11;;;;;;;17.00;7.40;;;;;;;;;;5071375;28;20040;-73
2023/01/18 06:02:37;;;;;;;15.05;7.53;;;;;;;;;;5072319;28;20050;-73
2023/01/18 06:05:03;;;;;;;14.50;7.88;;;;;;;;;;5072715;28;20516;-73
2023/01/18 06:07:32;;;;;;;15.65;7.85;;;;;;;;;;5072059;28;20048;-73
2023/01/18 06:09:59;;;;;;;15.32;7.68;;;;;;;;;;5062610;28;20355;-73
2023/01/18 06:12:25;;;;;;;12.65;7.60;;;;;;;;;;5051322;28;20128;-72
2023/01/18 06:14:51;;;;;;;17.67;8.43;;;;;;;;;;5052189;28;20473;-72
2023/01/18 06:17:17;;;;;;;17.63;8.00;;;;;;;;;;5051775;28;20041;-73
2023/01/18 06:19:43;;;;;;;15.27;8.20;;;;;;;;;;5066860;28;20041;-72
2023/01/18 06:22:35;;;;;;;13.27;7.70;;;;;;;;;;5071627;28;20044;-73
2023/01/18 06:25:01;;;;;;;19.20;8.27;;;;;;;;;;5069835;28;20076;-73
2023/01/18 06:27:27;;;;;;;20.55;8.50;;;;;;;;;;5038125;28;20127;-73
2023/01/18 06:29:54;;;;;;;18.20;8.68;;;;;;;;;;5071331;28;20086;-73
2023/01/18 06:32:21;;;;;;;14.52;8.25;;;;;;;;;;5065526;28;20049;-73
2023/01/18 06:34:48;;;;;;;14.50;8.32;;;;;;;;;;5062987;28;20043;-73
2023/01/18 06:37:14;;;;;;;16.88;8.20;;;;;;;;;;5070844;28;20048;-73
2023/01/18 06:39:40;;;;;;;18.05;8.45;;;;;;;;;;5071327;28;20037;-73
2023/01/18 06:42:06;;;;;;;18.45;8.30;;;;;;;;;;5070770;28;20165;-71
2023/01/18 06:44:32;;;;;;;18.45;8.80;;;;;;;;;;5054699;28;20045;-71
2023/01/18 06:46:58;;;;;;;16.45;8.50;;;;;;;;;;5054463;28;20044;-71
2023/01/18 06:49:25;;;;;;;17.48;8.68;;;;;;;;;;5070653;28;20086;-71
2023/01/18 06:51:51;;;;;;;16.75;8.30;;;;;;;;;;5071270;28;20431;-72
2023/01/18 06:54:17;;;;;;;17.05;8.50;;;;;;;;;;5053965;28;20043;-71
2023/01/18 06:56:43;;;;;;;21.63;9.00;;;;;;;;;;5072331;28;20094;-71
2023/01/18 06:59:09;;;;;;;15.63;8.90;;;;;;;;;;5070575;28;20040;-71
2023/01/18 07:01:35;;;;;;;18.60;10.23;;;;;;;;;;5071106;28;20052;-71
2023/01/18 07:04:01;;;;;;;15.38;8.20;;;;;;;;;;5070142;28;20098;-71
2023/01/18 07:06:27;;;;;;;21.20;9.50;;;;;;;;;;5070663;28;20489;-71
2023/01/18 07:08:53;;;;;;;17.67;9.13;;;;;;;;;;5053975;28;20393;-71
2023/01/18 07:11:19;;;;;;;19.80;9.40;;;;;;;;;;5050504;28;20071;-71
2023/01/18 07:13:45;;;;;;;17.20;8.73;;;;;;;;;;5050963;28;20045;-71
2023/01/18 07:16:16;;;;;;;18.52;8.95;;;;;;;;;;5050550;28;20033;-71
2023/01/18 07:18:43;;;;;;;16.63;9.63;;;;;;;;;;5051059;28;20503;-71
2023/01/18 07:21:10;;;;;;;16.85;9.02;;;;;;;;;;5044804;28;20044;-71
2023/01/18 07:23:37;;;;;;;18.67;10.07;;;;;;;;;;5070830;28;20040;-71
2023/01/18 07:26:03;;;;;;;19.58;10.32;;;;;;;;;;5070628;28;20045;-71
2023/01/18 07:28:29;;;;;;;20.50;9.70;;;;;;;;;;5070571;28;20115;-71
2023/01/18 07:30:55;;;;;;;19.27;10.00;;;;;;;;;;5054006;28;20044;-71
2023/01/18 07:33:21;;;;;;;17.45;9.23;;;;;;;;;;5069863;28;20122;-72
2023/01/18 07:35:47;;;;;;;20.98;9.90;;;;;;;;;;5061255;28;20041;-71
2023/01/18 07:38:14;;;;;;;17.08;9.20;;;;;;;;;;5053565;28;20051;-72
2023/01/18 07:40:40;;;;;;;18.30;10.00;;;;;;;;;;5070724;28;20101;-71
2023/01/18 07:43:06;;;;;;;22.15;10.10;;;;;;;;;;5070975;28;20044;-71
2023/01/18 07:45:32;;;;;;;20.83;10.60;;;;;;;;;;5071819;28;20041;-71
2023/01/18 07:47:58;;;;;;;16.33;9.13;;;;;;;;;;5070781;28;20094;-71
2023/01/18 07:50:24;;;;;;;16.42;9.32;;;;;;;;;;5065472;28;20512;-73
2023/01/18 07:52:51;;;;;;;16.80;9.88;;;;;;;;;;5061635;28;20040;-71
2023/01/18 07:55:17;;;;;;;18.95;9.40;;;;;;;;;;5070008;28;20036;-71
2023/01/18 07:57:43;;;;;;;18.33;9.85;;;;;;;;;;5070811;28;20386;-72
2023/01/18 08:00:10;;;;;;;18.63;10.00;;;;;;;;;;5054022;28;20037;-72
2023/01/18 08:02:36;;;;;;;30.75;17.10;;;;;;;;;;5070194;28;20663;-72
2023/01/18 08:05:02;;;;;;;35.42;18.05;;;;;;;;;;5054306;28;20401;-72
2023/01/18 08:07:33;;;;;;;18.33;10.70;;;;;;;;;;5053379;28;20098;-72
2023/01/18 08:09:59;;;;;;;16.90;9.65;;;;;;;;;;5060948;28;20045;-72
2023/01/18 08:12:25;;;;;;;20.45;9.65;;;;;;;;;;5049721;28;20485;-72
2023/01/18 08:14:51;;;;;;;17.58;8.95;;;;;;;;;;5051789;28;20037;-72
2023/01/18 08:17:17;;;;;;;18.17;9.25;;;;;;;;;;5055232;28;20071;-72
2023/01/18 08:19:43;;;;;;;21.20;10.10;;;;;;;;;;5053851;28;20107;-72
2023/01/18 08:22:09;;;;;;;17.60;9.82;;;;;;;;;;5054243;28;20041;-73
2023/01/18 08:24:35;;;;;;;17.00;9.98;;;;;;;;;;5054815;28;20045;-72
2023/01/18 08:27:01;;;;;;;18.50;9.50;;;;;;;;;;5054144;28;20049;-72
2023/01/18 08:29:28;;;;;;;17.70;10.10;;;;;;;;;;5036820;28;20049;-72
2023/01/18 08:31:54;;;;;;;13.88;8.52;;;;;;;;;;5037138;28;20037;-72
2023/01/18 08:34:20;;;;;;;16.27;9.55;;;;;;;;;;5054805;28;20048;-72
2023/01/18 08:36:46;;;;;;;13.50;8.05;;;;;;;;;;5039844;28;20056;-73
2023/01/18 08:39:13;;;;;;;12.45;7.30;;;;;;;;;;5054078;28;20080;-73
2023/01/18 08:41:40;;;;;;;12.00;7.07;;;;;;;;;;5059205;28;20065;-73
2023/01/18 08:44:07;;;;;;;12.43;7.47;;;;;;;;;;5073888;28;20416;-74
2023/01/18 08:46:34;;;;;;;15.68;8.93;;;;;;;;;;5072996;28;20036;-74
2023/01/18 08:49:00;;;;;;;11.23;6.75;;;;;;;;;;5073295;28;20134;-74
2023/01/18 08:51:26;;;;;;;12.48;6.63;;;;;;;;;;5073110;28;20044;-74
2023/01/18 08:53:55;;;;;;;11.73;6.13;;;;;;;;;;5073762;28;20040;-74
2023/01/18 08:56:21;;;;;;;11.85;5.47;;;;;;;;;;5056566;28;20066;-74
2023/01/18 08:58:50;;;;;;;11.50;6.32;;;;;;;;;;5073325;28;20119;-73
2023/01/18 09:01:16;;;;;;;9.48;5.70;;;;;;;;;;5073582;28;20056;-74
2023/01/18 09:03:42;;;;;;;10.45;5.75;;;;;;;;;;5072525;28;20123;-74
2023/01/18 09:06:08;;;;;;;9.95;5.40;;;;;;;;;;5073373;28;20143;-74
2023/01/18 09:08:34;;;;;;;11.73;5.07;;;;;;;;;;5056245;28;20508;-74
2023/01/18 09:11:02;;;;;;;11.50;5.75;;;;;;;;;;5056185;28;20037;-74
2023/01/18 09:13:28;;;;;;;9.20;5.10;;;;;;;;;;5052440;28;20057;-74
2023/01/18 09:15:58;;;;;;;10.13;5.13;;;;;;;;;;5053340;28;20475;-74
2023/01/18 09:18:24;;;;;;;8.85;5.00;;;;;;;;;;5052867;28;20052;-74
2023/01/18 09:20:53;;;;;;;10.80;5.35;;;;;;;;;;5052260;28;20037;-74
2023/01/18 09:23:19;;;;;;;11.15;5.63;;;;;;;;;;5036560;28;20052;-74
2023/01/18 09:25:45;;;;;;;9.55;5.13;;;;;;;;;;5051846;28;20041;-74
2023/01/18 09:28:12;;;;;;;9.35;5.25;;;;;;;;;;5052369;28;20052;-74
2023/01/18 09:30:38;;;;;;;10.30;4.97;;;;;;;;;;5052290;28;20194;-73
2023/01/18 09:33:04;;;;;;;8.32;4.90;;;;;;;;;;5044733;28;20051;-74
2023/01/18 09:35:31;;;;;;;8.27;4.82;;;;;;;;;;5068714;28;20037;-73
2023/01/18 09:37:57;;;;;;;8.13;4.75;;;;;;;;;;5056613;28;20067;-73
2023/01/18 09:40:26;;;;;;;8.85;5.07;;;;;;;;;;5039558;28;20037;-73
2023/01/18 09:42:52;;;;;;;10.85;4.60;;;;;;;;;;5072281;28;20493;-74
2023/01/18 09:45:34;;;;;;;7.88;4.32;;;;;;;;;;5072343;28;20041;-74
2023/01/18 09:48:03;;;;;;;8.02;4.68;;;;;;;;;;5072583;28;20039;-74
2023/01/18 09:50:31;;;;;;;7.18;4.30;;;;;;;;;;5072160;28;20037;-74
2023/01/18 09:53:03;;;;;;;7.35;4.28;;;;;;;;;;5072231;28;20046;-74
2023/01/18 09:55:39;;;;;;;7.57;4.18;;;;;;;;;;5072373;28;20443;-74
2023/01/18 09:58:23;;;;;;;6.82;4.50;;;;;;;;;;5072352;28;20060;-74
2023/01/18 10:00:49;;;;;;;7.28;4.20;;;;;;;;;;5071685;28;20041;-74
2023/01/18 10:03:18;;;;;;;6.93;3.78;;;;;;;;;;5055686;28;20546;-74
2023/01/18 10:06:08;;;;;;;8.05;4.38;;;;;;;;;;5054690;28;20036;-74
2023/01/18 10:09:03;;;;;;;8.98;4.18;;;;;;;;;;5071858;28;20541;-74
2023/01/18 10:11:53;;;;;;;7.40;4.30;;;;;;;;;;5072611;28;20530;-74
2023/01/18 10:14:32;;;;;;;8.52;4.30;;;;;;;;;;5052036;28;20115;-74
2023/01/18 10:17:00;;;;;;;7.03;4.05;;;;;;;;;;5051760;28;20422;-74
2023/01/18 10:19:27;;;;;;;7.97;4.40;;;;;;;;;;5051982;28;20474;-74
2023/01/18 10:21:59;;;;;;;11.05;5.07;;;;;;;;;;5051179;28;20041;-74
2023/01/18 10:24:32;;;;;;;8.35;4.55;;;;;;;;;;5035216;28;20108;-74
2023/01/18 10:27:09;;;;;;;7.80;4.40;;;;;;;;;;5051341;28;20048;-74
2023/01/18 10:29:52;;;;;;;8.27;4.70;;;;;;;;;;5051360;28;20497;-75
2023/01/18 10:32:20;;;;;;;7.88;4.35;;;;;;;;;;5051523;28;20119;-74
2023/01/18 10:34:50;;;;;;;7.38;4.15;;;;;;;;;;5052315;28;20037;-74
2023/01/18 10:37:22;;;;;;;8.52;4.28;;;;;;;;;;5051592;28;20060;-74
2023/01/18 10:39:50;;;;;;;7.07;4.43;;;;;;;;;;5051426;28;20044;-74
2023/01/18 10:42:24;;;;;;;8.25;3.90;;;;;;;;;;5035041;28;20090;-74
2023/01/18 10:44:51;;;;;;;6.85;4.32;;;;;;;;;;5051283;28;20556;-74
2023/01/18 10:47:18;;;;;;;7.95;4.10;;;;;;;;;;5051252;28;20049;-74
2023/01/18 10:49:45;;;;;;;6.68;4.25;;;;;;;;;;5050610;28;20178;-74
2023/01/18 10:52:25;;;;;;;8.00;4.13;;;;;;;;;;5052360;28;20102;-74
2023/01/18 10:54:56;;;;;;;6.72;4.30;;;;;;;;;;5034446;28;20076;-74
2023/01/18 10:57:28;;;;;;;6.00;3.80;;;;;;;;;;5052800;28;20452;-74
2023/01/18 10:59:55;;;;;;;8.13;4.35;;;;;;;;;;5050499;28;20048;-74
2023/01/18 11:02:27;;;;;;;7.32;3.92;;;;;;;;;;5051280;28;20052;-74
2023/01/18 11:04:55;;;;;;;8.25;4.15;;;;;;;;;;5050794;28;20521;-74
2023/01/18 11:07:27;;;;;;;5.68;3.97;;;;;;;;;;5050866;28;20072;-74
2023/01/18 11:09:55;;;;;;;6.93;4.05;;;;;;;;;;5050750;28;20368;-74
2023/01/18 11:12:44;;;;;;;6.65;3.85;;;;;;;;;;5034149;28;20053;-74
2023/01/18 11:15:13;;;;;;;6.80;3.78;;;;;;;;;;5050855;28;20037;-74
2023/01/18 11:18:01;;;;;;;7.18;3.95;;;;;;;;;;5050710;28;20098;-74
2023/01/18 11:20:32;;;;;;;7.28;4.38;;;;;;;;;;5050726;28;20052;-74
2023/01/18 11:22:58;;;;;;;7.57;4.20;;;;;;;;;;5050202;28;20041;-74
2023/01/18 11:25:25;;;;;;;7.15;4.30;;;;;;;;;;5050746;28;20242;-74
2023/01/18 11:27:51;;;;;;;6.90;4.03;;;;;;;;;;5050263;28;20080;-74
2023/01/18 11:30:21;;;;;;;10.57;4.85;;;;;;;;;;5034488;28;20401;-73
2023/01/18 11:32:48;;;;;;;6.65;3.85;;;;;;;;;;5050403;28;20558;-73
2023/01/18 11:35:27;;;;;;;8.77;4.13;;;;;;;;;;5050610;28;20106;-73
2023/01/18 11:37:57;;;;;;;7.68;3.90;;;;;;;;;;5050438;28;20091;-74
2023/01/18 11:40:26;;;;;;;8.23;3.92;;;;;;;;;;5034023;28;20095;-73
2023/01/18 11:42:57;;;;;;;8.48;3.65;;;;;;;;;;5050163;28;20048;-72
2023/01/18 11:45:30;;;;;;;5.60;3.70;;;;;;;;;;5050925;28;20044;-73
2023/01/18 11:48:14;;;;;;;8.20;3.92;;;;;;;;;;5033740;28;20444;-73
2023/01/18 11:50:46;;;;;;;8.35;3.90;;;;;;;;;;5022405;28;20538;-73
2023/01/18 11:53:12;;;;;;;6.10;3.63;;;;;;;;;;5035831;28;20037;-73
2023/01/18 11:55:46;;;;;;;8.07;4.10;;;;;;;;;;5054516;28;20041;-73
2023/01/18 11:58:28;;;;;;;8.73;3.92;;;;;;;;;;5054325;28;20044;-72
2023/01/18 12:00:58;;;;;;;7.22;3.88;;;;;;;;;;5054179;28;20037;-73
2023/01/18 12:03:24;;;;;;;9.27;4.25;;;;;;;;;;5053593;28;20401;-73
2023/01/18 12:05:56;;;;;;;7.30;4.40;;;;;;;;;;5025159;28;20474;-73
2023/01/18 12:08:54;;;;;;;8.85;4.50;;;;;;;;;;5054296;28;20497;-72
2023/01/18 12:11:26;;;;;;;8.75;4.45;;;;;;;;;;5029648;28;20045;-73
2023/01/18 12:13:52;;;;;;;10.13;4.53;;;;;;;;;;5053833;28;20098;-73
2023/01/18 12:16:39;;;;;;;7.75;4.30;;;;;;;;;;5054286;28;20049;-72
2023/01/18 12:19:08;;;;;;;7.55;4.15;;;;;;;;;;5053774;28;20558;-72
2023/01/18 12:21:50;;;;;;;9.52;4.55;;;;;;;;;;5037523;28;20506;-73
2023/01/18 12:24:23;;;;;;;8.60;4.22;;;;;;;;;;5055017;28;20053;-72
2023/01/18 12:27:02;;;;;;;11.60;4.63;;;;;;;;;;5053687;28;20149;-73
2023/01/18 12:29:43;;;;;;;11.75;4.45;;;;;;;;;;5053777;28;20048;-73
2023/01/18 12:32:22;;;;;;;8.45;3.90;;;;;;;;;;5053630;28;20406;-73
2023/01/18 12:34:54;;;;;;;8.18;4.13;;;;;;;;;;5053841;28;20037;-72
2023/01/18 12:37:26;;;;;;;7.38;4.03;;;;;;;;;;5053762;28;20037;-72
2023/01/18 12:39:55;;;;;;;7.93;4.40;;;;;;;;;;5053119;28;20040;-73
2023/01/18 12:42:24;;;;;;;8.02;4.15;;;;;;;;;;5053836;28;20513;-72
2023/01/18 12:45:09;;;;;;;7.63;4.30;;;;;;;;;;5053726;28;20521;-73
2023/01/18 12:47:35;;;;;;;7.45;4.07;;;;;;;;;;5053499;28;20045;-72
2023/01/18 12:50:14;;;;;;;14.15;3.80;;;;;;;;;;5053312;28;20036;-73
2023/01/18 12:52:44;;;;;;;8.60;3.97;;;;;;;;;;5053422;28;20048;-72
2023/01/18 12:55:19;;;;;;;10.77;3.97;;;;;;;;;;5052781;28;20402;-72
2023/01/18 12:57:47;;;;;;;9.50;3.72;;;;;;;;;;5054669;28;20088;-72
2023/01/18 13:00:20;;;;;;;9.02;4.43;;;;;;;;;;5036156;28;20379;-73
2023/01/18 13:02:48;;;;;;;8.35;4.10;;;;;;;;;;5053796;28;20045;-72
2023/01/18 13:05:23;;;;;;;7.78;3.90;;;;;;;;;;5052743;28;20176;-72
2023/01/18 13:08:13;;;;;;;11.35;3.97;;;;;;;;;;5053087;28;20469;-72
2023/01/18 13:10:40;;;;;;;8.30;4.18;;;;;;;;;;5024986;28;20380;-73
2023/01/18 13:13:06;;;;;;;9.85;4.68;;;;;;;;;;5052759;28;20132;-74
2023/01/18 13:15:45;;;;;;;8.65;4.00;;;;;;;;;;5053077;28;20049;-73
2023/01/18 13:18:14;;;;;;;7.97;4.35;;;;;;;;;;5041160;28;20036;-72
2023/01/18 13:20:56;;;;;;;9.95;4.07;;;;;;;;;;5053428;28;20637;-73
2023/01/18 13:23:22;;;;;;;9.70;4.03;;;;;;;;;;5040795;28;20033;-73
2023/01/18 13:25:56;;;;;;;11.45;4.38;;;;;;;;;;5053150;28;20103;-72
2023/01/18 13:28:24;;;;;;;7.82;4.40;;;;;;;;;;5039928;28;20041;-72
2023/01/18 13:30:51;;;;;;;12.85;4.72;;;;;;;;;;5052813;28;20044;-73
2023/01/18 13:33:21;;;;;;;10.45;4.20;;;;;;;;;;5053109;28;20045;-73
2023/01/18 13:35:50;;;;;;;11.73;4.95;;;;;;;;;;5064057;28;20044;-73
2023/01/18 13:38:18;;;;;;;10.60;4.88;;;;;;;;;;5072280;28;20128;-72
2023/01/18 13:41:20;;;;;;;;;;;;;;;;;;;;;
2023/01/18 13:47:44;;;;;;;12.68;4.63;;;;;;;;;;4961155;28;20054;-73
2023/01/18 13:50:34;;;;;;;7.03;4.13;;;;;;;;;;5011626;28;20104;-74
2023/01/18 13:53:09;;;;;;;13.02;4.47;;;;;;;;;;4995192;28;20124;-74
2023/01/18 13:55:35;;;;;;;16.05;5.85;;;;;;;;;;5037393;28;20044;-74
2023/01/18 13:58:02;;;;;;;7.43;4.15;;;;;;;;;;5074026;28;20036;-74
2023/01/18 14:00:28;;;;;;;9.55;4.50;;;;;;;;;;5074597;28;20071;-73
2023/01/18 14:03:05;;;;;;;8.73;4.15;;;;;;;;;;5074534;28;20569;-73
2023/01/18 14:05:36;;;;;;;8.93;4.40;;;;;;;;;;5074441;28;20090;-73
2023/01/18 14:08:03;;;;;;;10.25;4.82;;;;;;;;;;5073969;28;20044;-73
2023/01/18 14:10:32;;;;;;;9.75;4.70;;;;;;;;;;5043780;28;20048;-73
2023/01/18 14:13:00;;;;;;;8.98;4.20;;;;;;;;;;5056516;28;20041;-73
2023/01/18 14:15:37;;;;;;;11.15;4.70;;;;;;;;;;5037862;28;20032;-73
2023/01/18 14:18:04;;;;;;;9.75;4.45;;;;;;;;;;5037173;28;20036;-73
2023/01/18 14:20:33;;;;;;;12.07;4.63;;;;;;;;;;5029938;28;20057;-73
2023/01/18 14:23:19;;;;;;;11.00;5.03;;;;;;;;;;5050352;28;20040;-73
2023/01/18 14:25:48;;;;;;;9.90;5.25;;;;;;;;;;5051372;28;20052;-73
2023/01/18 14:28:20;;;;;;;13.65;4.80;;;;;;;;;;5051080;28;20037;-73
2023/01/18 14:30:47;;;;;;;9.80;5.60;;;;;;;;;;5051723;28;20037;-73
2023/01/18 14:33:16;;;;;;;13.45;5.78;;;;;;;;;;5051019;28;20041;-73
2023/01/18 14:36:08;;;;;;;12.60;6.13;;;;;;;;;;5051691;28;20390;-73
2023/01/18 14:38:39;;;;;;;12.57;5.80;;;;;;;;;;5036401;28;20045;-72
2023/01/18 14:41:07;;;;;;;9.60;5.53;;;;;;;;;;5034829;28;20139;-72
2023/01/18 14:43:35;;;;;;;16.42;6.70;;;;;;;;;;5051172;28;20045;-72
2023/01/18 14:46:10;;;;;;;17.73;6.68;;;;;;;;;;5085081;28;20052;-72
2023/01/18 14:48:42;;;;;;;13.77;5.77;;;;;;;;;;5051353;28;20037;-72
2023/01/18 14:51:08;;;;;;;11.30;5.15;;;;;;;;;;5034276;28;20284;-72
2023/01/18 14:53:41;;;;;;;9.20;4.70;;;;;;;;;;5050976;28;20041;-72
2023/01/18 14:56:13;;;;;;;11.40;5.20;;;;;;;;;;5051040;28;20486;-72
2023/01/18 14:58:43;;;;;;;8.93;5.07;;;;;;;;;;5052380;28;20474;-72
2023/01/18 15:01:24;;;;;;;10.68;5.07;;;;;;;;;;5034238;28;20040;-73
2023/01/18 15:03:58;;;;;;;9.95;5.07;;;;;;;;;;5051035;28;20047;-72
2023/01/18 15:06:29;;;;;;;9.73;5.03;;;;;;;;;;5034173;28;20425;-73
2023/01/18 15:08:55;;;;;;;8.48;4.35;;;;;;;;;;5052473;28;20102;-72
2023/01/18 15:11:22;;;;;;;10.93;5.13;;;;;;;;;;5050477;28;20036;-73
2023/01/18 15:13:50;;;;;;;9.18;4.63;;;;;;;;;;5034169;28;20052;-73
2023/01/18 15:16:23;;;;;;;7.88;4.10;;;;;;;;;;5050360;28;20044;-73
2023/01/18 15:18:50;;;;;;;9.38;4.47;;;;;;;;;;5034517;28;20401;-72
2023/01/18 15:21:19;;;;;;;8.55;4.40;;;;;;;;;;5050785;28;20041;-73
2023/01/18 15:23:45;;;;;;;12.25;4.45;;;;;;;;;;5050221;28;20036;-73
2023/01/18 15:26:12;;;;;;;10.85;4.35;;;;;;;;;;5050156;28;20433;-73
2023/01/18 15:28:39;;;;;;;10.73;4.32;;;;;;;;;;5050585;28;20043;-73